UAL390 KLAX-KSFO
Flight info
| Callsign | UAL390 |
|---|---|
| Flight time | 0h 51m |
| Altitude | 36000 |
| Route | SUMMR2 STOKD SERFR SERFR4 |
| Aircraft | B772/H-SDE2E3FGHIJ5LORVWXY/LB1D1 |
Departure
| Time | 2026-04-26 01:01 |
|---|---|
| Airport | Los Angeles International Airport (KLAX) |
Arrival
| Time | 2026-04-26 01:53 |
|---|---|
| Airport | San Francisco International Airport (KSFO) |
| Time | Latitude | Longitude | Altitude | Speed | Heading |
|---|---|---|---|---|---|
| 2026-04-25 23:59 | 33.94000 | -118.40243 | 128 ft | 0 kts | 36° |
| 2026-04-26 00:46 | 33.93989 | -118.40253 | 128 ft | 2 kts | 34° |
| 2026-04-26 00:46 | 33.93977 | -118.40263 | 129 ft | 2 kts | 34° |
| 2026-04-26 00:46 | 33.93964 | -118.40273 | 129 ft | 2 kts | 35° |
| 2026-04-26 00:46 | 33.93951 | -118.40281 | 129 ft | 2 kts | 357° |
| 2026-04-26 00:47 | 33.93938 | -118.40274 | 129 ft | 2 kts | 304° |
| 2026-04-26 00:47 | 33.93935 | -118.40257 | 129 ft | 2 kts | 261° |
| 2026-04-26 00:47 | 33.93937 | -118.40241 | 129 ft | 2 kts | 261° |
| 2026-04-26 00:47 | 33.93939 | -118.40222 | 129 ft | 2 kts | 264° |
| 2026-04-26 00:48 | 33.93941 | -118.40206 | 128 ft | 0 kts | 264° |
| 2026-04-26 00:48 | 33.93941 | -118.40203 | 128 ft | 0 kts | 264° |
| 2026-04-26 00:51 | 33.93940 | -118.40215 | 128 ft | 4 kts | 264° |
| 2026-04-26 00:52 | 33.93935 | -118.40275 | 129 ft | 8 kts | 264° |
| 2026-04-26 00:52 | 33.93928 | -118.40350 | 130 ft | 9 kts | 264° |
| 2026-04-26 00:52 | 33.93920 | -118.40434 | 131 ft | 10 kts | 264° |
| 2026-04-26 00:52 | 33.93911 | -118.40524 | 132 ft | 11 kts | 263° |
| 2026-04-26 00:53 | 33.93902 | -118.40623 | 133 ft | 12 kts | 263° |
| 2026-04-26 00:53 | 33.93890 | -118.40730 | 133 ft | 13 kts | 262° |
| 2026-04-26 00:53 | 33.93876 | -118.40846 | 134 ft | 14 kts | 262° |
| 2026-04-26 00:53 | 33.93862 | -118.40972 | 134 ft | 15 kts | 264° |
| 2026-04-26 00:54 | 33.93847 | -118.41108 | 134 ft | 17 kts | 262° |
| 2026-04-26 00:54 | 33.93837 | -118.41219 | 133 ft | 9 kts | 283° |
| 2026-04-26 00:54 | 33.93897 | -118.41269 | 133 ft | 12 kts | 351° |
| 2026-04-26 00:54 | 33.93992 | -118.41283 | 132 ft | 14 kts | 352° |
| 2026-04-26 00:55 | 33.94103 | -118.41299 | 131 ft | 16 kts | 354° |
| 2026-04-26 00:55 | 33.94226 | -118.41317 | 131 ft | 18 kts | 353° |
| 2026-04-26 00:55 | 33.94362 | -118.41338 | 130 ft | 20 kts | 352° |
| 2026-04-26 00:55 | 33.94506 | -118.41359 | 130 ft | 21 kts | 353° |
| 2026-04-26 00:56 | 33.94648 | -118.41380 | 130 ft | 16 kts | 353° |
| 2026-04-26 00:56 | 33.94727 | -118.41391 | 130 ft | 5 kts | 354° |
| 2026-04-26 00:56 | 33.94772 | -118.41379 | 130 ft | 7 kts | 35° |
| 2026-04-26 00:56 | 33.94796 | -118.41314 | 130 ft | 9 kts | 85° |
| 2026-04-26 00:57 | 33.94803 | -118.41224 | 130 ft | 11 kts | 85° |
| 2026-04-26 00:57 | 33.94811 | -118.41119 | 131 ft | 13 kts | 84° |
| 2026-04-26 00:57 | 33.94823 | -118.40998 | 131 ft | 15 kts | 82° |
| 2026-04-26 00:57 | 33.94839 | -118.40862 | 131 ft | 17 kts | 83° |
| 2026-04-26 00:58 | 33.94855 | -118.40713 | 130 ft | 19 kts | 83° |
| 2026-04-26 00:58 | 33.94869 | -118.40560 | 129 ft | 18 kts | 83° |
| 2026-04-26 00:58 | 33.94887 | -118.40402 | 128 ft | 20 kts | 83° |
| 2026-04-26 00:58 | 33.94902 | -118.40250 | 127 ft | 17 kts | 83° |
| 2026-04-26 00:59 | 33.94917 | -118.40107 | 126 ft | 17 kts | 83° |
| 2026-04-26 00:59 | 33.94930 | -118.39983 | 125 ft | 12 kts | 80° |
| 2026-04-26 00:59 | 33.94991 | -118.39920 | 124 ft | 12 kts | 1° |
| 2026-04-26 00:59 | 33.95037 | -118.39975 | 124 ft | 10 kts | 270° |
| 2026-04-26 01:00 | 33.95035 | -118.40011 | 125 ft | 0 kts | 265° |
| 2026-04-26 01:01 | 33.95029 | -118.40086 | 125 ft | 35 kts | 265° |
| 2026-04-26 01:01 | 33.94958 | -118.40753 | 130 ft | 122 kts | 263° |
| 2026-04-26 01:01 | 33.94818 | -118.42011 | 375 ft | 165 kts | 262° |
| 2026-04-26 01:01 | 33.94677 | -118.43330 | 1460 ft | 158 kts | 263° |
| 2026-04-26 01:02 | 33.94564 | -118.44498 | 2369 ft | 139 kts | 263° |
| 2026-04-26 01:02 | 33.94449 | -118.45678 | 2842 ft | 149 kts | 263° |
| 2026-04-26 01:02 | 33.94327 | -118.47051 | 2975 ft | 183 kts | 266° |
| 2026-04-26 01:02 | 33.94294 | -118.48628 | 3418 ft | 200 kts | 268° |
| 2026-04-26 01:03 | 33.94252 | -118.50359 | 4085 ft | 215 kts | 268° |
| 2026-04-26 01:03 | 33.94150 | -118.52186 | 4761 ft | 230 kts | 264° |
| 2026-04-26 01:03 | 33.93977 | -118.54153 | 5437 ft | 246 kts | 264° |
| 2026-04-26 01:03 | 33.93804 | -118.56269 | 6193 ft | 259 kts | 264° |
| 2026-04-26 01:04 | 33.93636 | -118.58401 | 7183 ft | 261 kts | 264° |
| 2026-04-26 01:04 | 33.93467 | -118.60560 | 8162 ft | 264 kts | 263° |
| 2026-04-26 01:04 | 33.93296 | -118.62743 | 9119 ft | 267 kts | 263° |
| 2026-04-26 01:04 | 33.93120 | -118.64977 | 10092 ft | 269 kts | 263° |
| 2026-04-26 01:05 | 33.92944 | -118.67245 | 10799 ft | 281 kts | 262° |
| 2026-04-26 01:05 | 33.92760 | -118.69617 | 11398 ft | 296 kts | 262° |
| 2026-04-26 01:05 | 33.92563 | -118.72147 | 11876 ft | 316 kts | 262° |
| 2026-04-26 01:05 | 33.92346 | -118.74910 | 11952 ft | 338 kts | 262° |
| 2026-04-26 01:06 | 33.92122 | -118.77780 | 12225 ft | 356 kts | 263° |
| 2026-04-26 01:06 | 33.91894 | -118.80714 | 13434 ft | 351 kts | 262° |
| 2026-04-26 01:06 | 33.91721 | -118.83604 | 14666 ft | 346 kts | 266° |
| 2026-04-26 01:06 | 33.91779 | -118.86467 | 15565 ft | 350 kts | 269° |
| 2026-04-26 01:07 | 33.91870 | -118.89432 | 16264 ft | 358 kts | 268° |
| 2026-04-26 01:07 | 33.91963 | -118.92438 | 17003 ft | 365 kts | 268° |
| 2026-04-26 01:07 | 33.92054 | -118.95468 | 17781 ft | 369 kts | 267° |
| 2026-04-26 01:07 | 33.92175 | -118.98551 | 18559 ft | 374 kts | 270° |
| 2026-04-26 01:08 | 33.92646 | -119.01670 | 19382 ft | 382 kts | 279° |
| 2026-04-26 01:08 | 33.93557 | -119.04697 | 20136 ft | 391 kts | 289° |
| 2026-04-26 01:08 | 33.94910 | -119.07561 | 20811 ft | 403 kts | 298° |
| 2026-04-26 01:08 | 33.96718 | -119.10184 | 21479 ft | 415 kts | 308° |
| 2026-04-26 01:09 | 33.98957 | -119.12446 | 22141 ft | 428 kts | 318° |
| 2026-04-26 01:09 | 34.01530 | -119.14331 | 22770 ft | 436 kts | 323° |
| 2026-04-26 01:09 | 34.04100 | -119.16248 | 23377 ft | 438 kts | 320° |
| 2026-04-26 01:09 | 34.06605 | -119.18320 | 23960 ft | 440 kts | 317° |
| 2026-04-26 01:10 | 34.09093 | -119.20534 | 24565 ft | 442 kts | 315° |
| 2026-04-26 01:10 | 34.11527 | -119.22817 | 25148 ft | 444 kts | 314° |
| 2026-04-26 01:10 | 34.13923 | -119.25150 | 25666 ft | 448 kts | 314° |
| 2026-04-26 01:10 | 34.16324 | -119.27555 | 26222 ft | 450 kts | 313° |
| 2026-04-26 01:11 | 34.18714 | -119.29993 | 26733 ft | 454 kts | 313° |
| 2026-04-26 01:11 | 34.21141 | -119.32501 | 27221 ft | 459 kts | 312° |
| 2026-04-26 01:11 | 34.23558 | -119.35024 | 27742 ft | 462 kts | 312° |
| 2026-04-26 01:11 | 34.25974 | -119.37563 | 28311 ft | 464 kts | 312° |
| 2026-04-26 01:12 | 34.28422 | -119.40147 | 28831 ft | 467 kts | 312° |
| 2026-04-26 01:12 | 34.30891 | -119.42765 | 29346 ft | 471 kts | 312° |
| 2026-04-26 01:12 | 34.33320 | -119.45347 | 29984 ft | 470 kts | 312° |
| 2026-04-26 01:12 | 34.34937 | -119.47067 | 30447 ft | 468 kts | 312° |
| 2026-04-26 01:13 | 34.37376 | -119.49667 | 31154 ft | 465 kts | 312° |
| 2026-04-26 01:13 | 34.39790 | -119.52245 | 31812 ft | 462 kts | 311° |
| 2026-04-26 01:13 | 34.42183 | -119.54806 | 32422 ft | 460 kts | 311° |
| 2026-04-26 01:13 | 34.44589 | -119.57385 | 33024 ft | 459 kts | 311° |
| 2026-04-26 01:14 | 34.46969 | -119.59937 | 33592 ft | 457 kts | 311° |
| 2026-04-26 01:14 | 34.49369 | -119.62515 | 34162 ft | 455 kts | 311° |
| 2026-04-26 01:14 | 34.51786 | -119.65114 | 34649 ft | 453 kts | 311° |
| 2026-04-26 01:14 | 34.54188 | -119.67699 | 35088 ft | 452 kts | 311° |
| 2026-04-26 01:15 | 34.56536 | -119.70228 | 35581 ft | 449 kts | 311° |
| 2026-04-26 01:15 | 34.58894 | -119.72772 | 35888 ft | 453 kts | 311° |
| 2026-04-26 01:15 | 34.63680 | -119.77940 | 35905 ft | 455 kts | 311° |
| 2026-04-26 01:16 | 34.68410 | -119.83050 | 35907 ft | 449 kts | 311° |
| 2026-04-26 01:16 | 34.73120 | -119.88152 | 35904 ft | 453 kts | 311° |
| 2026-04-26 01:17 | 34.77827 | -119.93258 | 35898 ft | 453 kts | 311° |
| 2026-04-26 01:17 | 34.82521 | -119.98357 | 35894 ft | 452 kts | 312° |
| 2026-04-26 01:18 | 34.87231 | -120.03483 | 35881 ft | 454 kts | 312° |
| 2026-04-26 01:18 | 34.91945 | -120.08621 | 35899 ft | 454 kts | 312° |
| 2026-04-26 01:19 | 34.96664 | -120.13770 | 35899 ft | 452 kts | 312° |
| 2026-04-26 01:19 | 35.01337 | -120.18881 | 36136 ft | 456 kts | 312° |
| 2026-04-26 01:20 | 35.03718 | -120.21489 | 35945 ft | 457 kts | 312° |
| 2026-04-26 01:20 | 35.06052 | -120.24043 | 35917 ft | 452 kts | 312° |
| 2026-04-26 01:20 | 35.10755 | -120.29202 | 35906 ft | 452 kts | 313° |
| 2026-04-26 01:21 | 35.15448 | -120.34360 | 35909 ft | 455 kts | 313° |
| 2026-04-26 01:21 | 35.20147 | -120.39529 | 35907 ft | 453 kts | 313° |
| 2026-04-26 01:22 | 35.24813 | -120.44673 | 35907 ft | 453 kts | 313° |
| 2026-04-26 01:22 | 35.29535 | -120.49887 | 35905 ft | 454 kts | 313° |
| 2026-04-26 01:23 | 35.34229 | -120.55077 | 35908 ft | 453 kts | 313° |
| 2026-04-26 01:23 | 35.38919 | -120.60273 | 35902 ft | 455 kts | 313° |
| 2026-04-26 01:24 | 35.43626 | -120.65495 | 35900 ft | 455 kts | 313° |
| 2026-04-26 01:24 | 35.48329 | -120.70721 | 35909 ft | 455 kts | 313° |
| 2026-04-26 01:25 | 35.52997 | -120.75917 | 35902 ft | 455 kts | 313° |
| 2026-04-26 01:25 | 35.57686 | -120.81145 | 35908 ft | 456 kts | 313° |
| 2026-04-26 01:26 | 35.62384 | -120.86393 | 35900 ft | 455 kts | 313° |
| 2026-04-26 01:26 | 35.67082 | -120.91648 | 35891 ft | 457 kts | 313° |
| 2026-04-26 01:27 | 35.71783 | -120.96915 | 35893 ft | 456 kts | 313° |
| 2026-04-26 01:27 | 35.76479 | -121.02185 | 35902 ft | 455 kts | 313° |
| 2026-04-26 01:28 | 35.81126 | -121.07410 | 35707 ft | 451 kts | 313° |
| 2026-04-26 01:28 | 35.83472 | -121.10050 | 35032 ft | 455 kts | 313° |
| 2026-04-26 01:28 | 35.85782 | -121.12655 | 34280 ft | 460 kts | 314° |
| 2026-04-26 01:29 | 35.88159 | -121.15337 | 33567 ft | 463 kts | 314° |
| 2026-04-26 01:29 | 35.90548 | -121.18033 | 32818 ft | 467 kts | 314° |
| 2026-04-26 01:29 | 35.92934 | -121.20729 | 32009 ft | 472 kts | 315° |
| 2026-04-26 01:29 | 35.95375 | -121.23489 | 31185 ft | 476 kts | 315° |
| 2026-04-26 01:30 | 35.97819 | -121.26253 | 30535 ft | 476 kts | 315° |
| 2026-04-26 01:30 | 36.00243 | -121.28998 | 30039 ft | 471 kts | 316° |
| 2026-04-26 01:30 | 36.02642 | -121.31715 | 29483 ft | 467 kts | 316° |
| 2026-04-26 01:30 | 36.05053 | -121.34449 | 28903 ft | 463 kts | 316° |
| 2026-04-26 01:31 | 36.07492 | -121.36962 | 28363 ft | 460 kts | 323° |
| 2026-04-26 01:31 | 36.10154 | -121.39111 | 27831 ft | 456 kts | 326° |
| 2026-04-26 01:31 | 36.12821 | -121.41179 | 27277 ft | 451 kts | 327° |
| 2026-04-26 01:31 | 36.15497 | -121.43253 | 26718 ft | 447 kts | 327° |
| 2026-04-26 01:32 | 36.18109 | -121.45283 | 26189 ft | 443 kts | 327° |
| 2026-04-26 01:32 | 36.20683 | -121.47287 | 25662 ft | 439 kts | 327° |
| 2026-04-26 01:32 | 36.23273 | -121.49307 | 25133 ft | 435 kts | 327° |
| 2026-04-26 01:32 | 36.25798 | -121.51279 | 24612 ft | 430 kts | 327° |
| 2026-04-26 01:33 | 36.28308 | -121.53243 | 24091 ft | 426 kts | 327° |
| 2026-04-26 01:33 | 36.30794 | -121.55189 | 23573 ft | 421 kts | 327° |
| 2026-04-26 01:33 | 36.33281 | -121.57138 | 23063 ft | 417 kts | 327° |
| 2026-04-26 01:33 | 36.35711 | -121.59045 | 22540 ft | 413 kts | 327° |
| 2026-04-26 01:34 | 36.38119 | -121.60935 | 22018 ft | 409 kts | 327° |
| 2026-04-26 01:34 | 36.40519 | -121.62821 | 21493 ft | 406 kts | 327° |
| 2026-04-26 01:34 | 36.42889 | -121.64685 | 20961 ft | 402 kts | 327° |
| 2026-04-26 01:34 | 36.45250 | -121.66544 | 20433 ft | 399 kts | 327° |
| 2026-04-26 01:35 | 36.47564 | -121.68367 | 19999 ft | 393 kts | 326° |
| 2026-04-26 01:35 | 36.49840 | -121.70161 | 19919 ft | 378 kts | 326° |
| 2026-04-26 01:35 | 36.52045 | -121.71902 | 19576 ft | 379 kts | 328° |
| 2026-04-26 01:35 | 36.54271 | -121.73661 | 19006 ft | 382 kts | 328° |
| 2026-04-26 01:36 | 36.56491 | -121.75417 | 18503 ft | 380 kts | 328° |
| 2026-04-26 01:36 | 36.58712 | -121.77174 | 18045 ft | 376 kts | 329° |
| 2026-04-26 01:36 | 36.60924 | -121.78925 | 17602 ft | 372 kts | 329° |
| 2026-04-26 01:37 | 36.65239 | -121.82345 | 16722 ft | 365 kts | 329° |
| 2026-04-26 01:37 | 36.67344 | -121.84016 | 16294 ft | 361 kts | 329° |
| 2026-04-26 01:37 | 36.69445 | -121.85683 | 15867 ft | 356 kts | 329° |
| 2026-04-26 01:37 | 36.71542 | -121.87349 | 15440 ft | 352 kts | 329° |
| 2026-04-26 01:38 | 36.73600 | -121.88904 | 15021 ft | 346 kts | 335° |
| 2026-04-26 01:38 | 36.75844 | -121.89857 | 14602 ft | 340 kts | 346° |
| 2026-04-26 01:38 | 36.78160 | -121.90544 | 14041 ft | 340 kts | 348° |
| 2026-04-26 01:38 | 36.80455 | -121.91185 | 13465 ft | 339 kts | 348° |
| 2026-04-26 01:39 | 36.82766 | -121.91827 | 12904 ft | 338 kts | 348° |
| 2026-04-26 01:39 | 36.85060 | -121.92466 | 12358 ft | 337 kts | 347° |
| 2026-04-26 01:39 | 36.87332 | -121.93100 | 11816 ft | 335 kts | 347° |
| 2026-04-26 01:39 | 36.89619 | -121.93739 | 11265 ft | 334 kts | 347° |
| 2026-04-26 01:40 | 36.91873 | -121.94369 | 10732 ft | 333 kts | 347° |
| 2026-04-26 01:40 | 36.94136 | -121.95003 | 10194 ft | 331 kts | 347° |
| 2026-04-26 01:40 | 36.96363 | -121.95667 | 9721 ft | 328 kts | 343° |
| 2026-04-26 01:40 | 36.98494 | -121.96523 | 9651 ft | 312 kts | 341° |
| 2026-04-26 01:41 | 37.00512 | -121.97351 | 9595 ft | 297 kts | 342° |
| 2026-04-26 01:41 | 37.02452 | -121.98128 | 9489 ft | 283 kts | 342° |
| 2026-04-26 01:41 | 37.04268 | -121.98843 | 9413 ft | 271 kts | 342° |
| 2026-04-26 01:41 | 37.06072 | -121.99549 | 9291 ft | 269 kts | 342° |
| 2026-04-26 01:42 | 37.07845 | -122.00242 | 9181 ft | 267 kts | 342° |
| 2026-04-26 01:42 | 37.09628 | -122.00938 | 9060 ft | 268 kts | 342° |
| 2026-04-26 01:42 | 37.11401 | -122.01632 | 8956 ft | 268 kts | 342° |
| 2026-04-26 01:42 | 37.13205 | -122.02337 | 8850 ft | 268 kts | 342° |
| 2026-04-26 01:43 | 37.15003 | -122.03040 | 8738 ft | 268 kts | 342° |
| 2026-04-26 01:43 | 37.16780 | -122.03735 | 8632 ft | 267 kts | 342° |
| 2026-04-26 01:43 | 37.18558 | -122.04432 | 8524 ft | 267 kts | 342° |
| 2026-04-26 01:43 | 37.20324 | -122.05123 | 8414 ft | 266 kts | 342° |
| 2026-04-26 01:44 | 37.22096 | -122.05818 | 8304 ft | 265 kts | 342° |
| 2026-04-26 01:44 | 37.23854 | -122.06508 | 8197 ft | 265 kts | 342° |
| 2026-04-26 01:44 | 37.25620 | -122.07200 | 8085 ft | 265 kts | 342° |
| 2026-04-26 01:44 | 37.27390 | -122.07895 | 7973 ft | 265 kts | 342° |
| 2026-04-26 01:45 | 37.29170 | -122.08595 | 7707 ft | 269 kts | 342° |
| 2026-04-26 01:45 | 37.30959 | -122.09300 | 7294 ft | 272 kts | 342° |
| 2026-04-26 01:45 | 37.32776 | -122.10016 | 6904 ft | 273 kts | 341° |
| 2026-04-26 01:45 | 37.34587 | -122.10730 | 6517 ft | 271 kts | 341° |
| 2026-04-26 01:46 | 37.36372 | -122.11433 | 6176 ft | 266 kts | 341° |
| 2026-04-26 01:46 | 37.38126 | -122.12118 | 5987 ft | 256 kts | 342° |
| 2026-04-26 01:46 | 37.39870 | -122.12712 | 5978 ft | 261 kts | 344° |
| 2026-04-26 01:46 | 37.41638 | -122.13303 | 5911 ft | 262 kts | 343° |
| 2026-04-26 01:47 | 37.43423 | -122.13911 | 5190 ft | 277 kts | 343° |
| 2026-04-26 01:47 | 37.45266 | -122.14542 | 4555 ft | 271 kts | 343° |
| 2026-04-26 01:47 | 37.47053 | -122.15134 | 4254 ft | 258 kts | 343° |
| 2026-04-26 01:47 | 37.48759 | -122.15691 | 4003 ft | 246 kts | 343° |
| 2026-04-26 01:48 | 37.50368 | -122.16221 | 3741 ft | 237 kts | 343° |
| 2026-04-26 01:48 | 37.51945 | -122.16740 | 3472 ft | 229 kts | 342° |
| 2026-04-26 01:48 | 37.53385 | -122.17477 | 3187 ft | 219 kts | 321° |
| 2026-04-26 01:48 | 37.54314 | -122.18896 | 2924 ft | 205 kts | 294° |
| 2026-04-26 01:49 | 37.54883 | -122.20461 | 2682 ft | 189 kts | 294° |
| 2026-04-26 01:49 | 37.55470 | -122.21894 | 2480 ft | 183 kts | 296° |
| 2026-04-26 01:49 | 37.56081 | -122.23298 | 2244 ft | 179 kts | 296° |
| 2026-04-26 01:49 | 37.56670 | -122.24668 | 2013 ft | 175 kts | 296° |
| 2026-04-26 01:50 | 37.57246 | -122.26025 | 1782 ft | 179 kts | 296° |
| 2026-04-26 01:50 | 37.57808 | -122.27352 | 1546 ft | 165 kts | 296° |
| 2026-04-26 01:50 | 37.58308 | -122.28525 | 1348 ft | 140 kts | 296° |
| 2026-04-26 01:50 | 37.58757 | -122.29587 | 1168 ft | 133 kts | 296° |
| 2026-04-26 01:51 | 37.59181 | -122.30589 | 990 ft | 129 kts | 296° |
| 2026-04-26 01:51 | 37.59601 | -122.31582 | 812 ft | 127 kts | 295° |
| 2026-04-26 01:51 | 37.60015 | -122.32561 | 636 ft | 126 kts | 295° |
| 2026-04-26 01:51 | 37.60426 | -122.33536 | 461 ft | 126 kts | 295° |
| 2026-04-26 01:52 | 37.60849 | -122.34508 | 297 ft | 124 kts | 296° |
| 2026-04-26 01:52 | 37.61257 | -122.35485 | 140 ft | 127 kts | 294° |
| 2026-04-26 01:52 | 37.61665 | -122.36457 | 21 ft | 118 kts | 295° |
| 2026-04-26 01:52 | 37.61974 | -122.37206 | 26 ft | 73 kts | 298° |
| 2026-04-26 01:53 | 37.62151 | -122.37648 | 31 ft | 46 kts | 298° |
| 2026-04-26 01:53 | 37.62286 | -122.37952 | 34 ft | 33 kts | 301° |
| 2026-04-26 01:53 | 37.62342 | -122.38092 | 35 ft | 17 kts | 284° |
| 2026-04-26 01:53 | 37.62312 | -122.38234 | 36 ft | 17 kts | 219° |
| 2026-04-26 01:54 | 37.62197 | -122.38296 | 37 ft | 18 kts | 198° |
| 2026-04-26 01:54 | 37.62089 | -122.38339 | 38 ft | 12 kts | 198° |
| 2026-04-26 01:54 | 37.62043 | -122.38351 | 39 ft | 6 kts | 170° |
| 2026-04-26 01:54 | 37.62004 | -122.38305 | 39 ft | 9 kts | 120° |
| 2026-04-26 01:55 | 37.61952 | -122.38184 | 38 ft | 18 kts | 117° |
| 2026-04-26 01:55 | 37.61903 | -122.38065 | 38 ft | 13 kts | 112° |
| 2026-04-26 01:55 | 37.61934 | -122.38002 | 37 ft | 10 kts | 359° |
| 2026-04-26 01:55 | 37.61985 | -122.38072 | 37 ft | 12 kts | 298° |
| 2026-04-26 01:56 | 37.62028 | -122.38174 | 38 ft | 13 kts | 298° |
| 2026-04-26 01:56 | 37.62075 | -122.38288 | 38 ft | 15 kts | 298° |
| 2026-04-26 01:56 | 37.62129 | -122.38415 | 38 ft | 17 kts | 297° |
| 2026-04-26 01:56 | 37.62186 | -122.38556 | 38 ft | 19 kts | 296° |
| 2026-04-26 01:57 | 37.62236 | -122.38683 | 37 ft | 7 kts | 297° |
| 2026-04-26 01:57 | 37.62265 | -122.38753 | 37 ft | 10 kts | 288° |
| 2026-04-26 01:57 | 37.62244 | -122.38812 | 37 ft | 8 kts | 194° |
| 2026-04-26 01:57 | 37.62189 | -122.38813 | 37 ft | 4 kts | 176° |
| 2026-04-26 01:58 | 37.62152 | -122.38813 | 38 ft | 5 kts | 189° |
| 2026-04-26 01:58 | 37.62125 | -122.38831 | 38 ft | 3 kts | 210° |
| 2026-04-26 01:58 | 37.62108 | -122.38843 | 38 ft | 1 kts | 209° |